Portada
METAR-TAF:

METAR-TAF

Aeroports :

Kotah, Índia

latitud: 25-09-36N, longitud: 075-50-44E, altitud: 273 m

METAR: manca

Hora: 04:35 (23:05 UTC)

Pronòstic

L'informe es va fer fa 5 minuts, a les 23:00 UTC
Pronòstic vàlid del 27 a les 00 UTC al 27 a les 09 UTC
Vent 3 kt amb direcció variable
Visibilitat: 3000 m
calitja
Evolucionant progressivament
l' 27 a les 04 UTC al 27 a les 06 UTC
Vent 6 kt del Oest/Nord-Oest
Visibilitat: 5000 m
Núvols disperses a una alçada de 3000 ft
calitja

TAF: VIKO 262300Z 2700/2709 VRB03KT 3000 HZ NSC BECMG 2704/2706 29006KT 5000 HZ SCT030

Observacions i pronòstics meteorològics de més de 4000 aeroports (METAR i TAF).

Les estacions disponibles són els punts grocs i vermells al mapa.

Posi el ratolí al punt desitjat per veure el nom de l'estació.

Feu clic per veure les observacions i els pronòstics meteorològics.

Per canviar el mapa: feu clic els botons verds amb una creu de color negre per apropar; al botó verd amb un guió per allunyar la imatge; o en les fletxes verdes per a mapes adjacents.


METAR-TAF: